createdAt,value
2023-02-21T00:00:33.830Z,13.38
2023-02-21T00:03:18.924Z,16.13
2023-02-21T00:06:06.346Z,20.13
2023-02-21T00:08:51.343Z,17.15
2023-02-21T00:11:38.942Z,16.50
2023-02-21T00:14:24.039Z,14.38
2023-02-21T00:17:09.085Z,13.68
2023-02-21T00:19:56.402Z,18.13
2023-02-21T00:22:41.441Z,15.32
2023-02-21T00:25:26.497Z,14.60
2023-02-21T00:28:12.081Z,18.15
2023-02-21T00:30:57.291Z,14.20
2023-02-21T00:33:42.405Z,12.90
2023-02-21T00:36:27.459Z,14.63
2023-02-21T00:39:12.719Z,17.63
2023-02-21T00:41:57.639Z,12.95
2023-02-21T00:44:47.484Z,10.00
2023-02-21T00:47:32.427Z,8.48
2023-02-21T00:50:19.856Z,7.68
2023-02-21T00:53:07.743Z,15.27
2023-02-21T00:55:52.659Z,8.63
2023-02-21T00:58:40.114Z,13.93
2023-02-21T01:01:25.521Z,8.40
2023-02-21T01:04:10.779Z,6.72
2023-02-21T01:06:55.890Z,9.75
2023-02-21T01:09:40.942Z,14.32
2023-02-21T01:12:25.928Z,5.85
2023-02-21T01:15:10.833Z,7.53
2023-02-21T01:17:55.897Z,8.10
2023-02-21T01:20:41.762Z,10.23
2023-02-21T01:23:26.799Z,11.98
2023-02-21T01:26:12.086Z,7.40
2023-02-21T01:28:57.201Z,6.78
2023-02-21T01:31:42.576Z,7.50
2023-02-21T01:34:27.776Z,7.28
2023-02-21T01:37:13.075Z,8.13
2023-02-21T01:39:58.159Z,5.68
2023-02-21T01:42:47.539Z,8.25
2023-02-21T01:45:53.215Z,13.73
2023-02-21T01:48:41.295Z,5.90
2023-02-21T01:51:29.298Z,8.73
2023-02-21T01:54:15.254Z,7.15
2023-02-21T01:57:00.228Z,10.70
2023-02-21T01:59:55.154Z,10.10
2023-02-21T02:02:53.609Z,6.25
2023-02-21T02:05:47.622Z,6.80
2023-02-21T02:08:36.619Z,9.10
2023-02-21T02:11:46.274Z,8.05
2023-02-21T02:14:32.971Z,10.00
2023-02-21T02:17:26.813Z,8.27
2023-02-21T02:20:15.065Z,6.63
2023-02-21T02:23:20.120Z,8.38
2023-02-21T02:26:24.417Z,6.68
2023-02-21T02:29:00.447Z,9.52
2023-02-21T02:32:04.844Z,9.32
2023-02-21T02:34:38.576Z,7.10
2023-02-21T02:37:07.723Z,5.30
2023-02-21T02:39:46.225Z,5.53
2023-02-21T02:42:21.590Z,9.88
2023-02-21T02:44:58.152Z,6.47
2023-02-21T02:47:37.647Z,6.50
2023-02-21T02:50:10.657Z,5.97
2023-02-21T02:52:38.746Z,7.20
2023-02-21T02:55:30.512Z,8.43
2023-02-21T02:57:58.354Z,19.42
2023-02-21T03:00:24.992Z,7.63
2023-02-21T03:03:14.990Z,9.00
2023-02-21T03:06:02.130Z,5.82
2023-02-21T03:08:28.646Z,10.45
2023-02-21T03:11:10.939Z,8.77
2023-02-21T03:13:50.275Z,16.10
2023-02-21T03:16:28.049Z,17.63
2023-02-21T03:18:58.172Z,4.63
2023-02-21T03:21:42.123Z,9.75
2023-02-21T03:24:12.449Z,9.50
2023-02-21T03:26:42.500Z,8.88
2023-02-21T03:29:09.930Z,9.25
2023-02-21T03:31:44.639Z,6.15
2023-02-21T03:34:11.114Z,10.02
2023-02-21T03:36:38.870Z,9.68
2023-02-21T03:39:05.948Z,12.45
2023-02-21T03:41:32.732Z,10.98
2023-02-21T03:44:00.010Z,10.25
2023-02-21T03:46:26.569Z,9.57
2023-02-21T03:48:53.200Z,8.35
2023-02-21T03:51:19.837Z,14.32
2023-02-21T03:53:46.369Z,7.75
2023-02-21T03:56:15.842Z,15.43
2023-02-21T03:58:42.343Z,10.18
2023-02-21T04:02:05.553Z,7.60
2023-02-21T04:04:32.403Z,8.82
2023-02-21T04:07:01.447Z,8.50
2023-02-21T04:09:28.017Z,7.65
2023-02-21T04:11:54.495Z,13.57
2023-02-21T04:14:21.107Z,8.88
2023-02-21T04:16:47.770Z,13.55
2023-02-21T04:19:14.653Z,6.43
2023-02-21T04:21:41.288Z,13.48
2023-02-21T04:24:10.725Z,14.90
2023-02-21T04:26:37.720Z,6.68
2023-02-21T04:29:05.243Z,6.80
2023-02-21T04:31:32.520Z,8.48
2023-02-21T04:34:11.397Z,9.90
2023-02-21T04:36:42.081Z,11.43
2023-02-21T04:39:09.313Z,7.25
2023-02-21T04:41:38.207Z,9.15
2023-02-21T04:44:06.512Z,10.82
2023-02-21T04:46:33.768Z,8.52
2023-02-21T04:49:01.223Z,7.97
2023-02-21T04:51:28.081Z,9.48
2023-02-21T04:53:55.482Z,7.13
2023-02-21T04:56:25.188Z,12.73
2023-02-21T04:58:52.659Z,9.75
2023-02-21T05:01:28.633Z,7.93
2023-02-21T05:03:57.693Z,8.50
2023-02-21T05:06:27.365Z,13.95
2023-02-21T05:08:53.947Z,5.43
2023-02-21T05:11:23.655Z,10.10
2023-02-21T05:13:50.311Z,8.15
2023-02-21T05:16:17.681Z,8.10
2023-02-21T05:18:47.244Z,14.15
2023-02-21T05:21:17.791Z,15.00
2023-02-21T05:23:56.378Z,17.85
2023-02-21T05:26:32.905Z,12.77
2023-02-21T05:29:00.208Z,15.50
2023-02-21T05:31:27.564Z,9.45
2023-02-21T05:33:56.664Z,14.23
2023-02-21T05:36:26.726Z,6.25
2023-02-21T05:38:55.992Z,11.13
2023-02-21T05:41:25.336Z,9.45
2023-02-21T05:43:52.648Z,6.55
2023-02-21T05:46:34.471Z,8.38
2023-02-21T05:49:04.744Z,11.33
2023-02-21T05:51:42.588Z,11.55
2023-02-21T05:54:18.836Z,11.82
2023-02-21T05:56:47.674Z,9.00
2023-02-21T05:59:16.206Z,10.60
2023-02-21T06:01:42.769Z,11.25
2023-02-21T06:04:11.633Z,12.02
2023-02-21T06:06:43.426Z,11.52
2023-02-21T06:09:11.081Z,10.00
2023-02-21T06:11:40.242Z,11.15
2023-02-21T06:14:13.368Z,10.05
2023-02-21T06:16:42.596Z,15.13
2023-02-21T06:19:10.377Z,12.20
2023-02-21T06:21:43.012Z,11.50
2023-02-21T06:24:12.939Z,12.18
2023-02-21T06:26:41.089Z,13.80
2023-02-21T06:29:10.502Z,9.82
2023-02-21T06:31:37.296Z,18.42
2023-02-21T06:34:06.877Z,18.73
2023-02-21T06:36:33.636Z,48.85
2023-02-21T06:39:06.154Z,24.00
2023-02-21T06:43:59.652Z,29.00
2023-02-21T06:46:29.280Z,57.15
2023-02-21T06:48:55.817Z,63.08
2023-02-21T06:51:31.872Z,61.33
2023-02-21T06:53:58.534Z,49.22
2023-02-21T06:56:25.448Z,46.67
2023-02-21T06:58:52.341Z,37.30
2023-02-21T07:01:19.476Z,38.45
2023-02-21T07:03:47.145Z,29.67
2023-02-21T07:06:14.176Z,28.40
2023-02-21T07:08:43.019Z,24.20
2023-02-21T07:11:09.757Z,19.05
2023-02-21T07:13:36.513Z,21.73
2023-02-21T07:16:03.187Z,21.38
2023-02-21T07:18:29.647Z,24.33
2023-02-21T07:20:57.249Z,25.40
2023-02-21T07:23:26.024Z,25.75
2023-02-21T07:25:55.376Z,21.65
2023-02-21T07:28:24.326Z,18.35
2023-02-21T07:30:50.814Z,27.67
2023-02-21T07:33:17.218Z,27.73
2023-02-21T07:35:43.770Z,21.17
2023-02-21T07:38:29.656Z,15.45
2023-02-21T07:41:01.218Z,16.38
2023-02-21T07:43:29.009Z,20.53
2023-02-21T07:45:56.078Z,25.45
2023-02-21T07:48:25.136Z,18.15
2023-02-21T07:50:51.652Z,22.13
2023-02-21T07:53:20.508Z,22.70
2023-02-21T07:55:47.078Z,24.65
2023-02-21T07:58:13.696Z,14.02
2023-02-21T08:00:40.855Z,15.07
2023-02-21T08:03:07.711Z,17.02
2023-02-21T08:05:34.165Z,12.30
2023-02-21T08:08:00.704Z,9.80
2023-02-21T08:10:28.058Z,12.90
2023-02-21T08:12:56.958Z,21.35
2023-02-21T08:15:23.322Z,13.52
2023-02-21T08:17:50.930Z,10.70
2023-02-21T08:20:18.326Z,12.00
2023-02-21T08:22:45.228Z,17.35
2023-02-21T08:25:15.685Z,24.98
2023-02-21T08:27:43.505Z,13.77
2023-02-21T08:30:12.702Z,12.90
2023-02-21T08:32:39.133Z,12.93
2023-02-21T08:35:08.485Z,10.20
2023-02-21T08:37:36.400Z,13.80
2023-02-21T08:40:04.356Z,17.50
2023-02-21T08:42:30.820Z,10.20
2023-02-21T08:44:57.583Z,17.35
2023-02-21T08:47:24.439Z,16.02
2023-02-21T08:49:53.986Z,21.08
2023-02-21T08:52:23.455Z,16.10
2023-02-21T08:54:49.971Z,12.77
2023-02-21T08:57:16.430Z,12.00
2023-02-21T08:59:45.523Z,12.90
2023-02-21T09:02:17.197Z,12.77
2023-02-21T09:04:44.476Z,11.10
2023-02-21T09:07:16.298Z,15.60
2023-02-21T09:09:42.799Z,16.63
2023-02-21T09:12:10.257Z,16.75
2023-02-21T09:14:40.517Z,17.48
2023-02-21T09:17:11.704Z,10.93
2023-02-21T09:19:38.385Z,14.73
2023-02-21T09:22:07.905Z,15.68
2023-02-21T09:24:34.649Z,10.00
2023-02-21T09:27:03.077Z,11.35
2023-02-21T09:29:45.961Z,10.55
2023-02-21T09:32:14.319Z,13.25
2023-02-21T09:34:41.732Z,13.95
2023-02-21T09:37:08.199Z,12.90
2023-02-21T09:39:37.975Z,16.10
2023-02-21T09:42:07.915Z,16.05
2023-02-21T09:44:34.900Z,19.40
2023-02-21T09:47:05.917Z,20.73
2023-02-21T09:49:41.971Z,14.30
2023-02-21T09:52:22.331Z,22.05
2023-02-21T09:54:54.799Z,20.00
2023-02-21T09:57:21.271Z,19.10
2023-02-21T09:59:49.868Z,18.77
2023-02-21T10:02:38.354Z,23.77
2023-02-21T10:05:16.641Z,18.40
2023-02-21T10:08:08.805Z,14.85
2023-02-21T10:10:35.226Z,20.10
2023-02-21T10:13:23.575Z,21.33
2023-02-21T10:15:55.911Z,16.50
2023-02-21T10:18:34.290Z,23.33
2023-02-21T10:21:06.954Z,15.68
2023-02-21T10:23:52.675Z,18.38
2023-02-21T10:26:29.035Z,20.23
2023-02-21T10:28:57.339Z,30.55
2023-02-21T10:31:32.671Z,21.35
2023-02-21T10:34:05.740Z,16.17
2023-02-21T10:36:33.925Z,17.13
2023-02-21T10:39:09.167Z,23.20
2023-02-21T10:41:42.379Z,12.60
2023-02-21T10:44:35.293Z,17.63
2023-02-21T10:47:22.315Z,23.83
2023-02-21T10:53:10.607Z,17.57
2023-02-21T10:55:37.976Z,15.48
2023-02-21T10:58:18.818Z,23.92
2023-02-21T11:00:48.240Z,13.68
2023-02-21T11:03:27.767Z,14.60
2023-02-21T11:05:57.990Z,14.45
2023-02-21T11:08:52.787Z,11.43
2023-02-21T11:12:18.141Z,17.25
2023-02-21T11:15:04.206Z,16.73
2023-02-21T11:17:33.953Z,13.07
2023-02-21T11:20:08.026Z,22.98
2023-02-21T11:22:35.080Z,15.98
2023-02-21T11:25:28.888Z,15.57
2023-02-21T11:28:20.456Z,14.68
2023-02-21T11:31:03.541Z,11.63
2023-02-21T11:33:30.906Z,14.93
2023-02-21T11:36:21.008Z,31.52
2023-02-21T11:39:29.891Z,17.98
2023-02-21T11:42:04.946Z,14.35
2023-02-21T11:44:37.749Z,18.83
2023-02-21T11:47:24.122Z,18.98
2023-02-21T11:50:07.777Z,15.48
2023-02-21T11:52:56.769Z,11.75
2023-02-21T11:55:26.533Z,14.20
2023-02-21T11:58:31.841Z,14.48
2023-02-21T12:01:10.873Z,14.50
2023-02-21T12:04:12.910Z,11.68
2023-02-21T12:07:05.702Z,10.95
2023-02-21T12:09:49.399Z,13.18
2023-02-21T12:15:42.820Z,10.95
2023-02-21T12:18:40.418Z,14.25
2023-02-21T12:21:25.594Z,10.40
2023-02-21T12:24:04.781Z,12.07
2023-02-21T12:26:37.837Z,11.30
2023-02-21T12:29:22.438Z,9.77
2023-02-21T12:32:01.304Z,12.10
2023-02-21T12:34:35.333Z,7.20
2023-02-21T12:37:14.068Z,9.93
2023-02-21T12:40:01.718Z,5.93
2023-02-21T12:42:44.193Z,11.02
2023-02-21T12:45:38.436Z,13.40
2023-02-21T12:48:16.902Z,8.10
2023-02-21T12:50:53.046Z,7.03
2023-02-21T12:53:35.543Z,11.52
2023-02-21T12:56:15.216Z,7.93
2023-02-21T12:58:58.195Z,9.57
2023-02-21T13:01:40.636Z,10.55
2023-02-21T13:04:35.494Z,6.63
2023-02-21T13:07:26.984Z,8.32
2023-02-21T13:10:03.374Z,7.63
2023-02-21T13:13:08.610Z,6.53
2023-02-21T13:15:35.917Z,9.18
2023-02-21T13:18:07.502Z,7.28
2023-02-21T13:20:45.376Z,6.85
2023-02-21T13:23:12.946Z,5.25
2023-02-21T13:26:07.864Z,6.95
2023-02-21T13:28:36.774Z,5.72
2023-02-21T13:31:06.333Z,9.70
2023-02-21T13:33:47.457Z,8.77
2023-02-21T13:36:51.808Z,9.50
2023-02-21T13:39:32.394Z,7.05
2023-02-21T13:42:10.293Z,3.92
2023-02-21T13:44:42.248Z,6.22
2023-02-21T13:47:17.430Z,7.93
2023-02-21T13:49:55.534Z,8.80
2023-02-21T13:52:25.381Z,8.77
2023-02-21T13:55:22.827Z,3.80
2023-02-21T13:58:11.995Z,5.03
2023-02-21T14:00:40.351Z,3.22
2023-02-21T14:03:18.241Z,3.90
2023-02-21T14:05:52.754Z,5.05
2023-02-21T14:08:49.842Z,4.72
2023-02-21T14:11:37.677Z,4.13
2023-02-21T14:14:32.466Z,12.35
2023-02-21T14:17:02.747Z,10.75
2023-02-21T14:19:37.635Z,3.80
2023-02-21T14:22:15.523Z,5.63
2023-02-21T14:24:49.083Z,6.50
2023-02-21T14:27:20.054Z,2.35
2023-02-21T14:30:12.744Z,2.10
2023-02-21T14:33:07.660Z,5.05
2023-02-21T14:35:38.965Z,4.22
2023-02-21T14:38:15.581Z,3.40
2023-02-21T14:40:49.097Z,6.00
2023-02-21T14:43:47.487Z,3.20
2023-02-21T14:46:44.467Z,3.15
2023-02-21T14:49:32.989Z,7.05
2023-02-21T14:52:09.815Z,6.05
2023-02-21T14:54:48.340Z,5.53
2023-02-21T14:57:36.147Z,5.57
2023-02-21T15:00:39.371Z,11.52
2023-02-21T15:03:17.245Z,3.63
2023-02-21T15:05:52.273Z,3.22
2023-02-21T15:08:24.070Z,11.95
2023-02-21T15:10:53.399Z,7.63
2023-02-21T15:13:45.895Z,3.47
2023-02-21T15:19:02.385Z,7.60
2023-02-21T15:21:29.099Z,3.78
2023-02-21T15:24:12.746Z,3.08
2023-02-21T15:26:39.304Z,1.30
2023-02-21T15:29:11.615Z,5.18
2023-02-21T15:31:56.445Z,4.97
2023-02-21T15:34:29.967Z,1.40
2023-02-21T15:37:07.645Z,2.53
2023-02-21T15:39:37.733Z,7.80
2023-02-21T15:42:08.490Z,11.25
2023-02-21T15:44:42.582Z,4.50
2023-02-21T15:47:15.226Z,2.42
2023-02-21T15:49:48.577Z,3.78
2023-02-21T15:52:39.528Z,1.30
2023-02-21T15:55:43.689Z,4.10
2023-02-21T15:58:28.006Z,3.50
2023-02-21T16:01:13.929Z,3.88
2023-02-21T16:03:48.485Z,4.55
2023-02-21T16:06:36.495Z,4.82
2023-02-21T16:09:19.314Z,6.28
2023-02-21T16:11:49.061Z,2.60
2023-02-21T16:14:33.334Z,3.75
2023-02-21T16:17:38.837Z,3.83
2023-02-21T16:20:15.284Z,4.22
2023-02-21T16:23:32.952Z,2.58
2023-02-21T16:28:59.951Z,12.95
2023-02-21T16:31:34.189Z,12.05
2023-02-21T16:34:08.400Z,7.95
2023-02-21T16:36:43.483Z,3.97
2023-02-21T16:39:11.911Z,9.48
2023-02-21T16:41:41.044Z,3.80
2023-02-21T16:44:07.478Z,3.63
2023-02-21T16:46:33.955Z,3.38
2023-02-21T16:49:03.143Z,4.22
2023-02-21T16:51:33.735Z,4.88
2023-02-21T16:54:02.687Z,4.18
2023-02-21T16:56:31.799Z,3.20
2023-02-21T16:58:58.362Z,3.63
2023-02-21T17:01:30.055Z,4.47
2023-02-21T17:03:59.049Z,6.00
2023-02-21T17:06:27.635Z,4.50
2023-02-21T17:08:54.428Z,15.63
2023-02-21T17:11:20.912Z,14.32
2023-02-21T17:13:47.385Z,17.40
2023-02-21T17:16:14.431Z,12.25
2023-02-21T17:18:41.257Z,9.25
2023-02-21T17:21:07.722Z,13.23
2023-02-21T17:23:34.267Z,13.07
2023-02-21T17:26:00.693Z,7.03
2023-02-21T17:28:27.315Z,14.07
2023-02-21T17:30:53.744Z,15.30
2023-02-21T17:33:23.343Z,11.07
2023-02-21T17:35:49.955Z,11.75
2023-02-21T17:38:16.345Z,16.33
2023-02-21T17:40:43.897Z,20.45
2023-02-21T17:43:10.486Z,12.65
2023-02-21T17:45:36.878Z,11.40
2023-02-21T17:48:05.623Z,12.13
2023-02-21T17:50:38.561Z,12.15
2023-02-21T17:53:05.404Z,11.60
2023-02-21T17:55:35.030Z,5.45
2023-02-21T17:58:04.004Z,6.38
2023-02-21T18:00:35.327Z,5.60
2023-02-21T18:03:04.355Z,3.47
2023-02-21T18:05:31.595Z,7.18
2023-02-21T18:07:58.653Z,3.63
2023-02-21T18:10:26.612Z,7.72
2023-02-21T18:13:00.983Z,5.72
2023-02-21T18:15:31.177Z,8.18
2023-02-21T18:18:03.818Z,13.05
2023-02-21T18:20:33.324Z,17.25
2023-02-21T18:22:59.899Z,16.98
2023-02-21T18:25:27.291Z,12.63
2023-02-21T18:27:53.780Z,13.80
2023-02-21T18:30:21.788Z,8.90
2023-02-21T18:32:48.189Z,16.75
2023-02-21T18:35:16.850Z,64.20
2023-02-21T18:37:43.822Z,30.23
2023-02-21T18:40:10.555Z,21.35
2023-02-21T18:42:37.159Z,15.50
2023-02-21T18:45:04.012Z,18.55
2023-02-21T18:47:35.616Z,15.68
2023-02-21T18:50:02.380Z,11.20
2023-02-21T18:52:31.458Z,19.02
2023-02-21T18:55:03.869Z,20.70
2023-02-21T18:57:34.382Z,16.90
2023-02-21T19:00:07.892Z,32.22
2023-02-21T19:02:37.184Z,27.65
2023-02-21T19:05:25.620Z,24.48
2023-02-21T19:07:56.512Z,26.75
2023-02-21T19:10:24.608Z,18.80
2023-02-21T19:12:51.221Z,14.68
2023-02-21T19:15:25.927Z,27.98
2023-02-21T19:17:55.717Z,29.27
2023-02-21T19:20:29.906Z,39.85
2023-02-21T19:22:58.544Z,24.92
2023-02-21T19:25:31.432Z,35.28
2023-02-21T19:28:06.702Z,32.33
2023-02-21T19:30:37.221Z,22.45
2023-02-21T19:33:09.251Z,23.77
2023-02-21T19:35:36.242Z,32.70
2023-02-21T19:38:11.248Z,31.88
2023-02-21T19:40:47.544Z,28.35
2023-02-21T19:43:14.861Z,30.23
2023-02-21T19:45:46.731Z,23.08
2023-02-21T19:48:13.478Z,28.23
2023-02-21T19:50:51.656Z,25.85
2023-02-21T19:53:20.995Z,27.05
2023-02-21T19:55:47.999Z,25.38
2023-02-21T19:58:14.837Z,25.77
2023-02-21T20:00:43.910Z,34.90
2023-02-21T20:03:15.852Z,29.23
2023-02-21T20:05:42.672Z,29.50
2023-02-21T20:08:11.788Z,27.13
2023-02-21T20:10:38.517Z,27.60
2023-02-21T20:13:06.716Z,22.45
2023-02-21T20:15:36.885Z,27.10
2023-02-21T20:18:07.084Z,29.38
2023-02-21T20:20:33.908Z,45.00
2023-02-21T20:23:03.566Z,47.90
2023-02-21T20:25:30.103Z,31.20
2023-02-21T20:27:57.238Z,25.05
2023-02-21T20:30:26.655Z,32.95
2023-02-21T20:33:00.216Z,48.58
2023-02-21T20:35:27.723Z,51.53
2023-02-21T20:38:04.586Z,49.05
2023-02-21T20:40:38.748Z,41.95
2023-02-21T20:43:07.657Z,31.67
2023-02-21T20:45:38.409Z,22.33
2023-02-21T20:48:10.942Z,13.75
2023-02-21T20:50:50.659Z,26.90
2023-02-21T20:53:17.719Z,61.78
2023-02-21T20:55:44.238Z,46.13
2023-02-21T20:58:11.112Z,45.03
2023-02-21T21:00:42.734Z,46.60
2023-02-21T21:03:14.165Z,63.05
2023-02-21T21:05:42.437Z,45.90
2023-02-21T21:08:10.116Z,47.63
2023-02-21T21:10:40.702Z,37.70
2023-02-21T21:13:12.543Z,33.28
2023-02-21T21:15:38.989Z,36.05
2023-02-21T21:18:05.617Z,33.03
2023-02-21T21:20:34.841Z,24.98
2023-02-21T21:23:01.298Z,26.42
2023-02-21T21:25:34.784Z,30.42
2023-02-21T21:28:02.629Z,25.90
2023-02-21T21:30:32.981Z,26.58
2023-02-21T21:33:05.052Z,26.95
2023-02-21T21:35:31.460Z,30.42
2023-02-21T21:38:02.978Z,37.55
2023-02-21T21:40:38.032Z,28.83
2023-02-21T21:43:10.465Z,33.22
2023-02-21T21:48:24.819Z,25.42
2023-02-21T21:50:51.956Z,30.92
2023-02-21T21:53:28.235Z,27.10
2023-02-21T21:55:56.774Z,23.25
2023-02-21T21:58:26.632Z,21.40
2023-02-21T22:01:02.349Z,13.15
2023-02-21T22:03:29.082Z,10.63
2023-02-21T22:05:56.355Z,10.38
2023-02-21T22:08:23.145Z,9.77
2023-02-21T22:10:52.170Z,16.90
2023-02-21T22:13:21.929Z,18.40
2023-02-21T22:15:49.263Z,20.75
2023-02-21T22:18:24.056Z,19.05
2023-02-21T22:20:52.538Z,15.27
2023-02-21T22:23:26.621Z,14.10
2023-02-21T22:25:53.137Z,13.10
2023-02-21T22:28:20.186Z,9.98
2023-02-21T22:30:49.398Z,14.52
2023-02-21T22:33:21.134Z,19.48
2023-02-21T22:35:52.247Z,10.90
2023-02-21T22:38:19.148Z,9.52
2023-02-21T22:40:50.415Z,14.88
2023-02-21T22:43:19.974Z,10.75
2023-02-21T22:45:50.078Z,10.25
2023-02-21T22:48:19.530Z,15.93
2023-02-21T22:50:47.454Z,8.23
2023-02-21T22:53:19.770Z,9.60
2023-02-21T22:55:51.826Z,13.30
2023-02-21T22:58:23.747Z,12.27
2023-02-21T23:00:52.527Z,12.88
2023-02-21T23:03:18.952Z,9.13
2023-02-21T23:05:47.917Z,12.45
2023-02-21T23:08:16.797Z,12.48
2023-02-21T23:10:44.180Z,13.07
2023-02-21T23:13:16.260Z,13.52
2023-02-21T23:15:46.381Z,14.50
2023-02-21T23:18:20.789Z,10.70
2023-02-21T23:20:55.737Z,13.02
2023-02-21T23:23:28.426Z,17.60
2023-02-21T23:26:01.088Z,14.90
2023-02-21T23:28:38.860Z,18.40
2023-02-21T23:31:05.541Z,17.33
2023-02-21T23:33:34.032Z,17.10
2023-02-21T23:36:00.839Z,13.80
2023-02-21T23:38:28.328Z,14.75
2023-02-21T23:43:40.068Z,16.20
2023-02-21T23:46:10.369Z,15.60
2023-02-21T23:48:37.503Z,13.63
2023-02-21T23:51:04.066Z,15.88
2023-02-21T23:53:31.805Z,16.50
2023-02-21T23:56:01.074Z,14.70
2023-02-21T23:58:34.923Z,12.48
